Summerfield, Ohio
Current Conditions -  °F | °C
As of 6:53 AM on Friday 31 Oct 2014 (Local Time) from KZZV Reporting Station
Light Rain Light Rain  
Wind Chill: 41°   Ceiling: 4200
Heat Index: 41°   Visibility: 10mi
Dew Point: 36°   Wind: 3mph
Humidity: 82%   Direction: 260°W
Pressure: 29.98"   Gusts: NA
Location:  39.8°N, 81.34°W
Report Text: KZZV 311053Z AUTO 26003KT 10SM -RA OVC042 05/02 A2998 RMK AO2 RAB43 SLP154 P0000 T00500022
Loading
Personal Weather Stations






























Interactive Weather Map
Tropical Storm Tracking
New forecast layout! Learn more

10-Day Weather Forecast

Advertisements
Track Severe Weather on mobile